createdAt,value
2022-08-07T00:00:14.440Z,96894.84
2022-08-07T00:00:46.416Z,96904.06
2022-08-07T00:02:37.414Z,96900.94
2022-08-07T00:02:39.891Z,96906.38
2022-08-07T00:03:03.538Z,96911.59
2022-08-07T00:03:36.579Z,96910.84
2022-08-07T00:04:09.217Z,96907.72
2022-08-07T00:04:45.352Z,96911.59
2022-08-07T00:05:17.946Z,96905.28
2022-08-07T00:05:52.653Z,96914.09
2022-08-07T00:06:33.066Z,96911.78
2022-08-07T00:07:05.634Z,96910.25
2022-08-07T00:07:41.776Z,96916.06
2022-08-07T00:08:14.545Z,96916.91
2022-08-07T00:08:46.403Z,96913.91
2022-08-07T00:09:22.532Z,96906.59
2022-08-07T00:10:18.811Z,96912.63
2022-08-07T00:10:48.115Z,96919.22
2022-08-07T00:11:29.949Z,96919.28
2022-08-07T00:12:05.435Z,96918.34
2022-08-07T00:12:43.647Z,96916.16
2022-08-07T00:13:29.355Z,96916.19
2022-08-07T00:14:01.528Z,96917.63
2022-08-07T00:14:33.659Z,96916.78
2022-08-07T00:15:06.376Z,96919.03
2022-08-07T00:15:46.426Z,96921.16
2022-08-07T00:16:27.885Z,96921.53
2022-08-07T00:17:02.581Z,96922.69
2022-08-07T00:17:35.815Z,96925.25
2022-08-07T00:18:09.585Z,96924.22
2022-08-07T00:18:51.594Z,96925.25
2022-08-07T00:19:26.200Z,96931.53
2022-08-07T00:20:16.169Z,96928.31
2022-08-07T00:21:07.972Z,96929.44
2022-08-07T00:22:02.078Z,96926.19
2022-08-07T00:22:35.782Z,96930.59
2022-08-07T00:23:07.982Z,96926.84
2022-08-07T00:23:40.953Z,96923.84
2022-08-07T00:24:12.734Z,96934.72
2022-08-07T00:24:44.505Z,96926.13
2022-08-07T00:25:17.450Z,96935.84
2022-08-07T00:25:58.181Z,96927.78
2022-08-07T00:26:49.224Z,96928.81
2022-08-07T00:27:24.419Z,96932.41
2022-08-07T00:28:08.212Z,96926.09
2022-08-07T00:28:45.928Z,96931.50
2022-08-07T00:29:31.298Z,96927.66
2022-08-07T00:30:04.918Z,96935.41
2022-08-07T00:30:54.010Z,96925.44
2022-08-07T00:31:37.867Z,96932.53
2022-08-07T00:32:14.074Z,96931.75
2022-08-07T00:32:49.784Z,96928.38
2022-08-07T00:33:26.474Z,96926.88
2022-08-07T00:34:00.432Z,96931.94
2022-08-07T00:34:32.647Z,96926.22
2022-08-07T00:35:07.900Z,96928.38
2022-08-07T00:35:40.742Z,96931.94
2022-08-07T00:36:12.628Z,96926.34
2022-08-07T00:36:44.622Z,96928.53
2022-08-07T00:37:17.519Z,96932.03
2022-08-07T00:37:49.399Z,96931.84
2022-08-07T00:38:31.725Z,96929.56
2022-08-07T00:39:04.133Z,96924.53
2022-08-07T00:39:36.378Z,96934.16
2022-08-07T00:40:16.965Z,96931.16
2022-08-07T00:41:10.114Z,96932.69
2022-08-07T00:42:02.517Z,96936.44
2022-08-07T00:42:37.009Z,96938.84
2022-08-07T00:43:59.148Z,96939.41
2022-08-07T00:44:05.064Z,96935.22
2022-08-07T00:44:41.292Z,96938.69
2022-08-07T00:45:16.343Z,96935.94
2022-08-07T00:45:48.995Z,96931.09
2022-08-07T00:46:22.749Z,96936.13
2022-08-07T00:46:55.415Z,96928.94
2022-08-07T00:48:18.260Z,96941.31
2022-08-07T00:48:30.868Z,96938.69
2022-08-07T00:49:04.259Z,96933.09
2022-08-07T00:50:19.153Z,96937.31
2022-08-07T00:50:46.237Z,96932.47
2022-08-07T00:51:20.476Z,96937.47
2022-08-07T00:51:57.466Z,96931.59
2022-08-07T00:52:33.305Z,96932.88
2022-08-07T00:53:09.147Z,96937.81
2022-08-07T00:53:50.505Z,96934.16
2022-08-07T00:54:26.977Z,96928.75
2022-08-07T00:54:58.820Z,96932.53
2022-08-07T00:56:02.250Z,96933.97
2022-08-07T00:56:34.003Z,96935.59
2022-08-07T00:57:07.074Z,96929.69
2022-08-07T00:57:44.393Z,96939.31
2022-08-07T00:58:27.313Z,96925.19
2022-08-07T00:58:59.689Z,96923.06
2022-08-07T00:59:35.394Z,96926.50
2022-08-07T01:00:08.911Z,96921.84
2022-08-07T01:00:53.549Z,96925.25
2022-08-07T01:01:26.500Z,96912.63
2022-08-07T01:01:59.502Z,96917.22
2022-08-07T01:02:31.405Z,96922.34
2022-08-07T01:03:03.561Z,96927.97
2022-08-07T01:03:55.484Z,96919.25
2022-08-07T01:04:30.273Z,96919.72
2022-08-07T01:05:19.014Z,96915.91
2022-08-07T01:05:55.707Z,96916.19
2022-08-07T01:06:28.798Z,96915.53
2022-08-07T01:07:01.555Z,96915.97
2022-08-07T01:07:35.713Z,96909.13
2022-08-07T01:08:09.142Z,96908.72
2022-08-07T01:08:43.121Z,96914.88
2022-08-07T01:09:51.161Z,96916.47
2022-08-07T01:10:18.322Z,96912.94
2022-08-07T01:10:54.449Z,96908.00
2022-08-07T01:12:09.036Z,96913.38
2022-08-07T01:12:29.690Z,96915.44
2022-08-07T01:13:03.532Z,96910.56
2022-08-07T01:13:36.534Z,96906.16
2022-08-07T01:14:09.262Z,96903.28
2022-08-07T01:14:41.358Z,96914.25
2022-08-07T01:15:17.801Z,96914.31
2022-08-07T01:16:05.483Z,96909.44
2022-08-07T01:16:38.229Z,96913.34
2022-08-07T01:17:10.846Z,96904.25
2022-08-07T01:17:43.042Z,96905.03
2022-08-07T01:18:17.037Z,96910.75
2022-08-07T01:18:50.656Z,96906.16
2022-08-07T01:19:24.827Z,96907.41
2022-08-07T01:20:04.818Z,96906.97
2022-08-07T01:20:44.882Z,96903.47
2022-08-07T01:21:29.573Z,96907.34
2022-08-07T01:22:03.700Z,96903.50
2022-08-07T01:22:54.364Z,96911.22
2022-08-07T01:23:40.070Z,96906.66
2022-08-07T01:24:18.672Z,96907.81
2022-08-07T01:24:54.795Z,96911.22
2022-08-07T01:25:54.444Z,96901.28
2022-08-07T01:26:22.696Z,96905.84
2022-08-07T01:26:59.755Z,96903.44
2022-08-07T01:27:32.430Z,96901.97
2022-08-07T01:28:05.761Z,96903.91
2022-08-07T01:28:38.138Z,96903.41
2022-08-07T01:29:13.794Z,96909.34
2022-08-07T01:29:47.583Z,96902.94
2022-08-07T01:30:27.230Z,96904.84
2022-08-07T01:31:02.950Z,96916.41
2022-08-07T01:31:42.733Z,96905.78
2022-08-07T01:32:19.560Z,96901.34
2022-08-07T01:32:55.824Z,96899.50
2022-08-07T01:33:55.176Z,96900.28
2022-08-07T01:34:30.757Z,96899.44
2022-08-07T01:35:06.464Z,96897.56
2022-08-07T01:35:53.074Z,96902.41
2022-08-07T01:36:33.334Z,96896.38
2022-08-07T01:37:09.541Z,96897.06
2022-08-07T01:37:42.703Z,96896.31
2022-08-07T01:38:24.952Z,96891.75
2022-08-07T01:39:04.142Z,96903.13
2022-08-07T01:39:46.950Z,96897.06
2022-08-07T01:40:47.985Z,96899.34
2022-08-07T01:41:26.103Z,96905.16
2022-08-07T01:42:37.806Z,96894.84
2022-08-07T01:42:58.702Z,96900.38
2022-08-07T01:43:34.586Z,96897.00
2022-08-07T01:44:11.774Z,96903.91
2022-08-07T01:44:47.765Z,96905.06
2022-08-07T01:45:23.053Z,96915.72
2022-08-07T01:46:12.154Z,96905.72
2022-08-07T01:46:47.179Z,96910.97
2022-08-07T01:48:20.157Z,96919.06
2022-08-07T01:48:20.459Z,96905.66
2022-08-07T01:49:02.393Z,96911.09
2022-08-07T01:49:36.155Z,96901.66
2022-08-07T01:50:10.291Z,96906.94
2022-08-07T01:50:49.759Z,96910.63
2022-08-07T01:52:02.766Z,96905.41
2022-08-07T01:52:18.677Z,96905.56
2022-08-07T01:52:54.891Z,96913.41
2022-08-07T01:54:09.642Z,96906.28
2022-08-07T01:54:36.323Z,96911.84
2022-08-07T01:55:22.251Z,96899.75
2022-08-07T01:56:11.022Z,96904.44
2022-08-07T01:56:55.150Z,96904.66
2022-08-07T01:58:01.379Z,96892.13
2022-08-07T01:58:33.297Z,96894.84
2022-08-07T01:59:31.127Z,96897.94
2022-08-07T02:00:13.730Z,96900.09
2022-08-07T02:01:09.312Z,96896.09
2022-08-07T02:02:02.211Z,96896.16
2022-08-07T02:03:19.222Z,96895.84
2022-08-07T02:03:50.957Z,96900.50
2022-08-07T02:04:28.683Z,96895.91
2022-08-07T02:05:15.970Z,96901.25
2022-08-07T02:06:30.860Z,96885.22
2022-08-07T02:07:06.893Z,96887.94
2022-08-07T02:07:52.599Z,96897.19
2022-08-07T02:08:37.802Z,96901.59
2022-08-07T02:09:52.384Z,96899.13
2022-08-07T02:10:08.807Z,96895.47
2022-08-07T02:10:55.120Z,96896.13
2022-08-07T02:12:02.741Z,96891.63
2022-08-07T02:12:29.190Z,96892.34
2022-08-07T02:13:04.573Z,96896.59
2022-08-07T02:14:00.727Z,96896.19
2022-08-07T02:14:40.899Z,96889.38
2022-08-07T02:15:25.411Z,96891.38
2022-08-07T02:16:03.184Z,96903.19
2022-08-07T02:16:40.957Z,96895.19
2022-08-07T02:17:24.888Z,96893.47
2022-08-07T02:18:02.831Z,96889.06
2022-08-07T02:18:46.839Z,96891.50
2022-08-07T02:20:06.781Z,96885.22
2022-08-07T02:20:17.509Z,96888.94
2022-08-07T02:20:57.971Z,96883.53
2022-08-07T02:21:56.418Z,96884.31
2022-08-07T02:22:25.814Z,96884.53
2022-08-07T02:23:02.116Z,96886.31
2022-08-07T02:23:40.761Z,96887.28
2022-08-07T02:24:17.690Z,96888.03
2022-08-07T02:24:52.822Z,96888.53
2022-08-07T02:26:10.261Z,96887.88
2022-08-07T02:26:32.854Z,96881.41
2022-08-07T02:27:08.432Z,96883.19
2022-08-07T02:27:42.120Z,96886.75
2022-08-07T02:28:25.637Z,96885.41
2022-08-07T02:29:02.941Z,96876.91
2022-08-07T02:29:48.498Z,96885.88
2022-08-07T02:30:21.617Z,96885.28
2022-08-07T02:30:56.413Z,96878.03
2022-08-07T02:31:30.992Z,96885.22
2022-08-07T02:32:06.931Z,96882.94
2022-08-07T02:33:01.069Z,96881.44
2022-08-07T02:33:57.154Z,96882.84
2022-08-07T02:34:32.549Z,96880.50
2022-08-07T02:35:09.213Z,96881.63
2022-08-07T02:36:30.419Z,96886.34
2022-08-07T02:36:39.376Z,96889.09
2022-08-07T02:37:18.906Z,96891.69
2022-08-07T02:37:52.795Z,96888.94
2022-08-07T02:38:31.689Z,96888.22
2022-08-07T02:39:16.783Z,96893.19
2022-08-07T02:40:11.738Z,96892.44
2022-08-07T02:40:55.308Z,96890.44
2022-08-07T02:41:33.590Z,96890.47
2022-08-07T02:42:14.759Z,96884.72
2022-08-07T02:42:51.895Z,96886.47
2022-08-07T02:43:27.976Z,96886.97
2022-08-07T02:44:02.100Z,96886.28
2022-08-07T02:44:36.513Z,96884.63
2022-08-07T02:45:57.471Z,96880.94
2022-08-07T02:46:07.426Z,96883.78
2022-08-07T02:46:46.556Z,96885.03
2022-08-07T02:47:23.618Z,96887.66
2022-08-07T02:48:01.822Z,96885.06
2022-08-07T02:48:35.515Z,96894.03
2022-08-07T02:49:10.720Z,96890.63
2022-08-07T02:50:00.962Z,96890.09
2022-08-07T02:50:43.406Z,96883.16
2022-08-07T02:51:41.752Z,96889.84
2022-08-07T02:52:21.438Z,96886.78
2022-08-07T02:53:10.725Z,96889.59
2022-08-07T02:53:46.090Z,96889.31
2022-08-07T02:54:22.053Z,96888.56
2022-08-07T02:55:03.878Z,96885.03
2022-08-07T02:56:03.353Z,96879.78
2022-08-07T02:56:33.353Z,96888.94
2022-08-07T02:57:07.440Z,96885.03
2022-08-07T02:57:40.381Z,96888.72
2022-08-07T02:58:22.153Z,96886.50
2022-08-07T02:59:03.927Z,96892.53
2022-08-07T02:59:40.132Z,96898.16
2022-08-07T03:00:13.561Z,96895.72
2022-08-07T03:00:52.537Z,96900.44
2022-08-07T03:01:35.867Z,96885.91
2022-08-07T03:02:14.936Z,96893.66
2022-08-07T03:02:54.553Z,96900.19
2022-08-07T03:03:50.192Z,96909.38
2022-08-07T03:04:28.465Z,96903.06
2022-08-07T03:05:04.823Z,96901.94
2022-08-07T03:05:39.119Z,96890.06
2022-08-07T03:06:16.385Z,96898.34
2022-08-07T03:07:07.144Z,96901.22
2022-08-07T03:08:07.182Z,96897.56
2022-08-07T03:08:38.735Z,96902.16
2022-08-07T03:09:11.611Z,96902.72
2022-08-07T03:09:48.268Z,96901.38
2022-08-07T03:10:23.775Z,96896.00
2022-08-07T03:10:57.978Z,96900.91
2022-08-07T03:11:51.501Z,96906.00
2022-08-07T03:12:31.126Z,96907.50
2022-08-07T03:13:10.175Z,96909.63
2022-08-07T03:13:49.885Z,96908.53
2022-08-07T03:14:25.312Z,96908.75
2022-08-07T03:14:57.404Z,96911.16
2022-08-07T03:15:55.730Z,96917.19
2022-08-07T03:16:27.792Z,96910.03
2022-08-07T03:17:04.445Z,96912.59
2022-08-07T03:17:53.692Z,96909.94
2022-08-07T03:18:34.743Z,96905.63
2022-08-07T03:19:10.043Z,96913.50
2022-08-07T03:19:42.474Z,96916.25
2022-08-07T03:20:27.444Z,96909.25
2022-08-07T03:20:59.913Z,96905.56
2022-08-07T03:21:33.344Z,96912.50
2022-08-07T03:22:07.767Z,96911.72
2022-08-07T03:22:53.885Z,96906.78
2022-08-07T03:23:33.805Z,96910.38
2022-08-07T03:24:26.842Z,96914.34
2022-08-07T03:25:02.007Z,96905.38
2022-08-07T03:25:43.109Z,96917.88
2022-08-07T03:26:26.391Z,96900.34
2022-08-07T03:27:01.722Z,96910.22
2022-08-07T03:28:09.796Z,96908.47
2022-08-07T03:28:40.787Z,96918.47
2022-08-07T03:29:14.765Z,96915.97
2022-08-07T03:29:52.140Z,96911.66
2022-08-07T03:30:29.157Z,96913.00
2022-08-07T03:31:24.528Z,96918.81
2022-08-07T03:32:02.705Z,96916.69
2022-08-07T03:32:40.357Z,96918.59
2022-08-07T03:33:22.797Z,96922.34
2022-08-07T03:34:06.432Z,96914.84
2022-08-07T03:34:47.419Z,96913.50
2022-08-07T03:35:43.907Z,96912.44
2022-08-07T03:36:25.924Z,96914.31
2022-08-07T03:37:12.003Z,96922.94
2022-08-07T03:37:55.032Z,96915.00
2022-08-07T03:38:33.277Z,96919.75
2022-08-07T03:39:13.930Z,96913.00
2022-08-07T03:40:13.179Z,96919.97
2022-08-07T03:40:44.334Z,96915.06
2022-08-07T03:41:18.738Z,96917.09
2022-08-07T03:42:12.278Z,96910.94
2022-08-07T03:42:45.167Z,96912.47
2022-08-07T03:43:19.402Z,96914.94
2022-08-07T03:43:57.741Z,96916.41
2022-08-07T03:44:38.347Z,96912.72
2022-08-07T03:45:12.199Z,96915.41
2022-08-07T03:46:10.599Z,96913.00
2022-08-07T03:47:13.638Z,96913.50
2022-08-07T03:47:51.132Z,96907.91
2022-08-07T03:48:26.906Z,96908.00
2022-08-07T03:49:03.503Z,96913.56
2022-08-07T03:49:51.932Z,96909.91
2022-08-07T03:50:28.563Z,96907.13
2022-08-07T03:51:02.876Z,96906.13
2022-08-07T03:51:47.329Z,96903.81
2022-08-07T03:52:26.738Z,96907.91
2022-08-07T03:53:02.084Z,96908.34
2022-08-07T03:54:05.507Z,96904.22
2022-08-07T03:54:36.366Z,96905.78
2022-08-07T03:55:19.719Z,96905.44
2022-08-07T03:55:58.466Z,96913.44
2022-08-07T03:56:40.312Z,96906.91
2022-08-07T03:59:05.042Z,96914.38
2022-08-07T03:59:07.089Z,96913.72
2022-08-07T03:59:19.343Z,96911.38
2022-08-07T04:00:02.634Z,96915.91
2022-08-07T04:00:38.518Z,96908.75
2022-08-07T04:01:20.994Z,96905.09
2022-08-07T04:01:56.357Z,96908.63
2022-08-07T04:02:29.053Z,96907.72
2022-08-07T04:03:03.782Z,96914.56
2022-08-07T04:03:53.133Z,96912.88
2022-08-07T04:04:27.026Z,96905.50
2022-08-07T04:05:06.008Z,96906.41
2022-08-07T04:05:41.972Z,96913.00
2022-08-07T04:06:36.292Z,96914.38
2022-08-07T04:07:16.690Z,96906.69
2022-08-07T04:07:51.311Z,96916.72
2022-08-07T04:08:29.542Z,96906.34
2022-08-07T04:09:02.559Z,96915.56
2022-08-07T04:09:45.300Z,96909.47
2022-08-07T04:10:24.654Z,96907.72
2022-08-07T04:12:15.707Z,96915.00
2022-08-07T04:12:25.368Z,96914.44
2022-08-07T04:12:48.797Z,96912.19
2022-08-07T04:13:24.269Z,96918.47
2022-08-07T04:14:10.247Z,96914.00
2022-08-07T04:14:53.535Z,96910.47
2022-08-07T04:15:28.410Z,96914.56
2022-08-07T04:16:00.599Z,96913.22
2022-08-07T04:16:33.489Z,96904.38
2022-08-07T04:17:19.803Z,96908.75
2022-08-07T04:18:57.824Z,96908.34
2022-08-07T04:18:59.511Z,96910.22
2022-08-07T04:19:51.041Z,96907.50
2022-08-07T04:20:25.310Z,96910.47
2022-08-07T04:20:57.694Z,96911.22
2022-08-07T04:21:33.413Z,96905.78
2022-08-07T04:22:12.158Z,96912.00
2022-08-07T04:22:53.731Z,96912.28
2022-08-07T04:23:43.798Z,96904.44
2022-08-07T04:24:33.663Z,96912.31
2022-08-07T04:25:13.307Z,96912.66
2022-08-07T04:25:49.625Z,96905.78
2022-08-07T04:26:28.644Z,96915.63
2022-08-07T04:27:03.736Z,96905.94
2022-08-07T04:27:44.259Z,96905.22
2022-08-07T04:28:21.813Z,96904.63
2022-08-07T04:28:54.999Z,96903.03
2022-08-07T04:29:27.351Z,96902.75
2022-08-07T04:30:35.775Z,96903.47
2022-08-07T04:31:09.164Z,96907.47
2022-08-07T04:32:03.078Z,96898.78
2022-08-07T04:32:44.856Z,96904.00
2022-08-07T04:33:23.212Z,96909.81
2022-08-07T04:33:56.675Z,96901.53
2022-08-07T04:34:33.329Z,96908.47
2022-08-07T04:35:11.213Z,96918.25
2022-08-07T04:35:50.118Z,96905.59
2022-08-07T04:36:26.179Z,96906.41
2022-08-07T04:37:00.351Z,96899.75
2022-08-07T04:37:52.715Z,96911.16
2022-08-07T04:38:26.834Z,96907.72
2022-08-07T04:38:58.731Z,96905.50
2022-08-07T04:39:36.026Z,96912.38
2022-08-07T04:40:09.820Z,96913.16
2022-08-07T04:40:52.963Z,96909.47
2022-08-07T04:41:36.860Z,96909.69
2022-08-07T04:42:09.094Z,96911.03
2022-08-07T04:42:42.193Z,96915.00
2022-08-07T04:43:19.115Z,96911.81
2022-08-07T04:44:11.836Z,96915.97
2022-08-07T04:44:54.480Z,96915.97
2022-08-07T04:46:01.523Z,96911.72
2022-08-07T04:46:59.318Z,96913.84
2022-08-07T04:48:02.054Z,96924.50
2022-08-07T04:49:17.813Z,96926.47
2022-08-07T04:50:11.383Z,96918.91
2022-08-07T04:51:16.232Z,96923.28
2022-08-07T04:52:11.370Z,96914.50
2022-08-07T04:52:53.565Z,96919.41
2022-08-07T04:54:05.563Z,96920.38
2022-08-07T04:54:58.109Z,96913.91
2022-08-07T04:58:10.351Z,96916.84
2022-08-07T04:58:10.521Z,96915.34
2022-08-07T04:58:10.817Z,96916.13
2022-08-07T05:00:12.025Z,96914.88
2022-08-07T05:00:30.828Z,96918.47
2022-08-07T05:01:13.572Z,96908.06
2022-08-07T05:01:55.181Z,96914.44
2022-08-07T05:02:33.762Z,96910.69
2022-08-07T05:03:38.867Z,96911.72
2022-08-07T05:04:26.383Z,96914.84
2022-08-07T05:05:11.500Z,96913.72
2022-08-07T05:06:19.688Z,96907.06
2022-08-07T05:07:19.998Z,96911.22
2022-08-07T05:08:04.415Z,96902.09
2022-08-07T05:09:00.721Z,96911.59
2022-08-07T05:09:46.699Z,96900.00
2022-08-07T05:10:31.485Z,96901.75
2022-08-07T05:11:19.386Z,96889.25
2022-08-07T05:11:57.035Z,96894.72
2022-08-07T05:12:51.409Z,96896.47
2022-08-07T05:14:54.220Z,96889.09
2022-08-07T05:14:56.532Z,96897.47
2022-08-07T05:15:36.017Z,96893.38
2022-08-07T05:16:10.321Z,96889.59
2022-08-07T05:16:52.614Z,96889.69
2022-08-07T05:17:53.054Z,96886.50
2022-08-07T05:18:23.533Z,96885.78
2022-08-07T05:19:03.596Z,96890.56
2022-08-07T05:19:47.027Z,96892.13
2022-08-07T05:20:27.072Z,96889.06
2022-08-07T05:21:04.638Z,96892.06
2022-08-07T05:21:59.864Z,96886.53
2022-08-07T05:22:36.200Z,96884.59
2022-08-07T05:23:15.869Z,96884.34
2022-08-07T05:24:10.141Z,96886.13
2022-08-07T05:24:43.771Z,96881.16
2022-08-07T05:25:25.501Z,96875.47
2022-08-07T05:26:23.632Z,96875.50
2022-08-07T05:27:01.198Z,96892.97
2022-08-07T05:28:15.901Z,96884.34
2022-08-07T05:28:29.132Z,96874.09
2022-08-07T05:29:04.575Z,96880.00
2022-08-07T05:29:51.024Z,96874.06
2022-08-07T05:30:32.630Z,96879.44
2022-08-07T05:31:07.442Z,96878.66
2022-08-07T05:31:47.536Z,96880.44
2022-08-07T05:32:28.561Z,96890.34
2022-08-07T05:33:02.575Z,96879.28
2022-08-07T05:33:37.420Z,96884.47
2022-08-07T05:34:15.759Z,96875.38
2022-08-07T05:34:50.934Z,96886.38
2022-08-07T05:35:24.059Z,96879.09
2022-08-07T05:36:12.165Z,96879.34
2022-08-07T05:36:55.884Z,96878.00
2022-08-07T05:37:37.754Z,96882.03
2022-08-07T05:38:59.823Z,96888.78
2022-08-07T05:40:06.853Z,96882.19
2022-08-07T05:40:17.405Z,96883.88
2022-08-07T05:40:52.340Z,96883.28
2022-08-07T05:41:27.200Z,96885.75
2022-08-07T05:42:34.237Z,96885.88
2022-08-07T05:43:12.787Z,96883.03
2022-08-07T05:44:08.580Z,96882.28
2022-08-07T05:44:52.720Z,96885.66
2022-08-07T05:45:47.552Z,96889.03
2022-08-07T05:46:23.132Z,96882.59
2022-08-07T05:47:00.164Z,96885.84
2022-08-07T05:47:38.443Z,96889.56
2022-08-07T05:48:26.305Z,96886.09
2022-08-07T05:49:00.319Z,96886.25
2022-08-07T05:49:40.841Z,96881.88
2022-08-07T05:50:14.748Z,96889.84
2022-08-07T05:50:47.654Z,96889.97
2022-08-07T05:51:24.615Z,96883.25
2022-08-07T05:51:56.823Z,96886.72
2022-08-07T05:54:14.069Z,96894.31
2022-08-07T05:54:30.822Z,96885.34
2022-08-07T05:55:10.889Z,96882.72
2022-08-07T05:56:02.379Z,96888.69
2022-08-07T05:56:42.544Z,96884.28
2022-08-07T05:57:50.378Z,96880.69
2022-08-07T05:58:36.126Z,96871.75
2022-08-07T05:59:16.720Z,96877.44
2022-08-07T05:59:57.375Z,96871.19
2022-08-07T06:00:35.136Z,96882.16
2022-08-07T06:01:11.805Z,96881.44
2022-08-07T06:01:50.315Z,96883.00
2022-08-07T06:02:29.089Z,96880.66
2022-08-07T06:03:06.954Z,96885.53
2022-08-07T06:03:53.559Z,96885.56
2022-08-07T06:04:31.910Z,96884.56
2022-08-07T06:05:07.741Z,96877.38
2022-08-07T06:05:48.867Z,96869.56
2022-08-07T06:06:23.254Z,96876.00
2022-08-07T06:07:05.902Z,96878.50
2022-08-07T06:08:12.919Z,96884.22
2022-08-07T06:08:35.945Z,96887.28
2022-08-07T06:09:14.807Z,96882.78
2022-08-07T06:10:05.545Z,96883.03
2022-08-07T06:10:38.973Z,96880.88
2022-08-07T06:11:14.047Z,96875.13
2022-08-07T06:11:46.843Z,96873.41
2022-08-07T06:12:21.081Z,96879.00
2022-08-07T06:13:05.528Z,96880.50
2022-08-07T06:14:12.293Z,96875.56
2022-08-07T06:14:37.997Z,96872.75
2022-08-07T06:15:16.110Z,96881.47
2022-08-07T06:15:49.972Z,96875.84
2022-08-07T06:16:31.582Z,96879.81
2022-08-07T06:17:07.103Z,96875.59
2022-08-07T06:17:53.751Z,96881.03
2022-08-07T06:18:31.935Z,96874.44
2022-08-07T06:19:06.470Z,96877.78
2022-08-07T06:19:49.981Z,96872.81
2022-08-07T06:20:50.712Z,96871.28
2022-08-07T06:22:16.022Z,96872.47
2022-08-07T06:22:23.802Z,96876.84
2022-08-07T06:23:46.003Z,96876.75
2022-08-07T06:24:37.582Z,96872.91
2022-08-07T06:24:57.953Z,96874.44
2022-08-07T06:25:34.631Z,96878.13
2022-08-07T06:26:11.072Z,96868.88
2022-08-07T06:26:43.292Z,96869.66
2022-08-07T06:27:44.258Z,96867.63
2022-08-07T06:28:18.469Z,96865.72
2022-08-07T06:29:06.414Z,96861.91
2022-08-07T06:29:39.309Z,96867.19
2022-08-07T06:30:32.279Z,96871.66
2022-08-07T06:31:04.792Z,96873.91
2022-08-07T06:31:47.306Z,96870.03
2022-08-07T06:32:24.710Z,96867.13
2022-08-07T06:34:04.916Z,96872.88
2022-08-07T06:34:36.720Z,96878.00
2022-08-07T06:35:18.086Z,96872.22
2022-08-07T06:36:13.450Z,96870.22
2022-08-07T06:36:46.895Z,96863.06
2022-08-07T06:37:43.610Z,96869.66
2022-08-07T06:38:20.515Z,96875.72
2022-08-07T06:40:12.467Z,96877.84
2022-08-07T06:40:17.060Z,96879.00
2022-08-07T06:40:46.027Z,96876.72
2022-08-07T06:42:00.552Z,96871.94
2022-08-07T06:42:34.980Z,96870.63
2022-08-07T06:43:21.517Z,96874.22
2022-08-07T06:44:12.738Z,96876.47
2022-08-07T06:44:51.605Z,96879.34
2022-08-07T06:45:25.161Z,96871.00
2022-08-07T06:46:03.378Z,96874.13
2022-08-07T06:46:41.621Z,96862.91
2022-08-07T06:47:16.052Z,96874.94
2022-08-07T06:47:57.249Z,96867.91
2022-08-07T06:48:33.831Z,96869.50
2022-08-07T06:49:06.578Z,96876.16
2022-08-07T06:49:51.644Z,96864.13
2022-08-07T06:50:36.285Z,96879.63
2022-08-07T06:51:15.767Z,96873.69
2022-08-07T06:52:10.201Z,96882.22
2022-08-07T06:52:46.538Z,96874.53
2022-08-07T06:55:30.029Z,96875.34
2022-08-07T06:55:33.881Z,96878.28
2022-08-07T06:55:34.299Z,96867.16
2022-08-07T06:56:17.898Z,96873.69
2022-08-07T06:56:55.082Z,96875.94
2022-08-07T06:57:47.178Z,96880.28
2022-08-07T06:58:28.823Z,96873.94
2022-08-07T07:00:12.663Z,96871.13
2022-08-07T07:00:16.933Z,96869.88
2022-08-07T07:00:53.011Z,96874.19
2022-08-07T07:01:25.722Z,96873.81
2022-08-07T07:02:08.382Z,96870.75
2022-08-07T07:02:54.289Z,96865.31
2022-08-07T07:03:48.731Z,96873.06
2022-08-07T07:04:28.237Z,96876.06
2022-08-07T07:05:05.427Z,96879.63
2022-08-07T07:06:02.762Z,96876.81
2022-08-07T07:06:29.266Z,96867.59
2022-08-07T07:07:10.648Z,96870.31
2022-08-07T07:08:00.194Z,96874.63
2022-08-07T07:08:39.910Z,96869.91
2022-08-07T07:09:31.279Z,96871.38
2022-08-07T07:10:04.347Z,96869.41
2022-08-07T07:10:36.304Z,96869.69
2022-08-07T07:11:13.544Z,96857.88
2022-08-07T07:12:13.196Z,96863.00
2022-08-07T07:12:53.766Z,96861.84
2022-08-07T07:13:56.072Z,96872.53
2022-08-07T07:14:26.000Z,96865.94
2022-08-07T07:15:23.520Z,96860.94
2022-08-07T07:16:01.073Z,96860.09
2022-08-07T07:16:39.178Z,96862.72
2022-08-07T07:17:39.218Z,96859.34
2022-08-07T07:18:46.953Z,96849.94
2022-08-07T07:19:55.086Z,96853.53
2022-08-07T07:20:18.934Z,96854.91
2022-08-07T07:20:59.180Z,96858.41
2022-08-07T07:21:40.247Z,96854.56
2022-08-07T07:22:35.661Z,96850.41
2022-08-07T07:24:05.957Z,96844.75
2022-08-07T07:24:12.511Z,96850.88
2022-08-07T07:24:56.758Z,96854.88
2022-08-07T07:26:33.097Z,96854.19
2022-08-07T07:26:34.318Z,96854.16
2022-08-07T07:27:11.589Z,96856.59
2022-08-07T07:28:29.702Z,96859.28
2022-08-07T07:29:39.936Z,96854.06
2022-08-07T07:30:09.939Z,96850.19
2022-08-07T07:30:51.033Z,96854.47
2022-08-07T07:31:39.753Z,96851.28
2022-08-07T07:32:14.315Z,96851.69
2022-08-07T07:32:47.176Z,96852.84
2022-08-07T07:33:22.717Z,96856.88
2022-08-07T07:34:01.769Z,96851.47
2022-08-07T07:34:39.631Z,96854.28
2022-08-07T07:35:12.824Z,96849.34
2022-08-07T07:36:04.569Z,96843.88
2022-08-07T07:36:40.511Z,96847.81
2022-08-07T07:37:21.615Z,96841.50
2022-08-07T07:38:08.269Z,96840.34
2022-08-07T07:38:46.231Z,96846.81
2022-08-07T07:39:21.375Z,96848.34
2022-08-07T07:39:58.848Z,96848.16
2022-08-07T07:40:33.274Z,96848.69
2022-08-07T07:41:09.179Z,96850.97
2022-08-07T07:41:50.829Z,96846.91
2022-08-07T07:42:36.734Z,96846.28
2022-08-07T07:43:15.360Z,96844.53
2022-08-07T07:44:18.079Z,96841.66
2022-08-07T07:44:49.600Z,96842.59
2022-08-07T07:46:35.620Z,96840.78
2022-08-07T07:46:37.147Z,96837.25
2022-08-07T07:47:23.798Z,96837.81
2022-08-07T07:47:58.181Z,96833.44
2022-08-07T07:48:36.059Z,96838.84
2022-08-07T07:50:29.601Z,96831.69
2022-08-07T07:50:33.019Z,96837.59
2022-08-07T07:50:57.681Z,96831.19
2022-08-07T07:51:32.113Z,96821.84
2022-08-07T07:52:25.603Z,96827.97
2022-08-07T07:52:58.532Z,96833.22
2022-08-07T07:53:39.767Z,96827.03
2022-08-07T07:54:24.955Z,96825.66
2022-08-07T07:54:58.979Z,96829.75
2022-08-07T07:55:37.354Z,96831.25
2022-08-07T07:56:12.495Z,96830.97
2022-08-07T07:56:45.867Z,96825.25
2022-08-07T07:57:44.013Z,96826.72
2022-08-07T07:58:15.814Z,96830.53
2022-08-07T07:58:51.113Z,96830.44
2022-08-07T07:59:52.000Z,96832.28
2022-08-07T08:00:28.794Z,96826.31
2022-08-07T08:02:04.142Z,96824.94
2022-08-07T08:02:05.230Z,96829.28
2022-08-07T08:03:05.216Z,96823.72
2022-08-07T08:04:09.720Z,96822.44
2022-08-07T08:04:31.943Z,96823.66
2022-08-07T08:05:14.389Z,96828.56
2022-08-07T08:05:53.879Z,96828.28
2022-08-07T08:06:26.695Z,96830.56
2022-08-07T08:07:02.811Z,96828.88
2022-08-07T08:07:51.376Z,96831.16
2022-08-07T08:08:36.961Z,96823.63
2022-08-07T08:09:12.749Z,96821.63
2022-08-07T08:09:52.524Z,96827.97
2022-08-07T08:10:38.983Z,96827.16
2022-08-07T08:11:16.424Z,96828.16
2022-08-07T08:12:01.796Z,96821.63
2022-08-07T08:12:59.057Z,96831.56
2022-08-07T08:13:36.529Z,96820.28
2022-08-07T08:14:24.622Z,96815.50
2022-08-07T08:14:58.455Z,96816.25
2022-08-07T08:15:57.672Z,96818.84
2022-08-07T08:16:37.996Z,96814.47